Kezdőlap
METAR-TAF:

METAR-TAF

Repülőterek :

Merrill Municipal Airport

Merrill, Wisconsin, Amerikai Egyesült Államok

földrajzi szélesség: 45-11N, földrajzi hosszúság: 089-42W, magasság: 401 m

Jelenlegi meteorológiai megfigyelések

A jelentés 29 perccel ezelõtt készült, 10:15 UTC
Kelet-délkeleti szél 9 kt
Hőmérséklet 0°C
Páratartalom 93%
Légköri nyomás 1003 hPa
Látótávolság: 16.1 km
Borult 800 lábon

METAR: KRRL 091015Z AUTO 12009KT 10SM OVC008 00/M01 A2961 RMK AO2 T00001007 TSNO

Idő: 04:44 (10:44 UTC)


TAF: hiányzik

Meteorológiai megfigyelések és előrejelzések több, mint 4000 repülőtéren (METAR és TAF jelentéseket).

A térképen piros és sárga pontok jelzik az elérhető meteorológiai állomásokat.

Mozgassa az egeret a pont fölött, hogy megjelenjen az állomás neve.

Azután kattintson az időjárási megfigyelések és előrejelzések megtekintéséhez.

A térkép megváltoztatása: kattintson a fekete keresztel jelölt zöld gombra ráközelítéshez, a vonallal jelölt zöld gombra távolításhoz, vagy a zöld nyilakra a szomszédos térképek eléréséhez.


METAR-TAF: